sensor_id;sensor_type;location;lat;lon;timestamp;temperature;humidity
26326;DHT22;14032;52.510;7.342;2023-04-24T00:01:25;10.30;99.90
26326;DHT22;14032;52.510;7.342;2023-04-24T00:03:51;10.30;99.90
26326;DHT22;14032;52.510;7.342;2023-04-24T00:06:17;10.20;99.90
26326;DHT22;14032;52.510;7.342;2023-04-24T00:08:43;10.20;99.90
26326;DHT22;14032;52.510;7.342;2023-04-24T00:11:08;10.20;99.90
26326;DHT22;14032;52.510;7.342;2023-04-24T00:13:34;10.30;99.90
26326;DHT22;14032;52.510;7.342;2023-04-24T00:16:00;10.20;99.90
26326;DHT22;14032;52.510;7.342;2023-04-24T00:18:26;10.30;99.90
26326;DHT22;14032;52.510;7.342;2023-04-24T00:20:51;10.30;99.90
26326;DHT22;14032;52.510;7.342;2023-04-24T00:23:17;10.40;99.90
26326;DHT22;14032;52.510;7.342;2023-04-24T00:25:42;10.40;99.90
26326;DHT22;14032;52.510;7.342;2023-04-24T00:28:08;10.40;99.90
26326;DHT22;14032;52.510;7.342;2023-04-24T00:30:33;10.40;99.90
26326;DHT22;14032;52.510;7.342;2023-04-24T00:32:59;10.40;99.90
26326;DHT22;14032;52.510;7.342;2023-04-24T00:35:24;10.40;99.90
26326;DHT22;14032;52.510;7.342;2023-04-24T00:37:50;10.50;99.90
26326;DHT22;14032;52.510;7.342;2023-04-24T00:40:15;10.50;99.90
26326;DHT22;14032;52.510;7.342;2023-04-24T00:42:41;10.40;99.90
26326;DHT22;14032;52.510;7.342;2023-04-24T00:45:07;10.40;99.90
26326;DHT22;14032;52.510;7.342;2023-04-24T00:47:32;10.40;99.90
26326;DHT22;14032;52.510;7.342;2023-04-24T00:49:58;10.50;99.90
26326;DHT22;14032;52.510;7.342;2023-04-24T00:52:23;10.50;99.90
26326;DHT22;14032;52.510;7.342;2023-04-24T00:54:49;10.60;99.90
26326;DHT22;14032;52.510;7.342;2023-04-24T00:57:15;10.50;99.90
26326;DHT22;14032;52.510;7.342;2023-04-24T00:59:41;10.50;99.90
26326;DHT22;14032;52.510;7.342;2023-04-24T01:02:08;10.50;99.90
26326;DHT22;14032;52.510;7.342;2023-04-24T01:04:37;10.50;99.90
26326;DHT22;14032;52.510;7.342;2023-04-24T01:07:05;10.50;99.90
26326;DHT22;14032;52.510;7.342;2023-04-24T01:09:36;10.50;99.90
26326;DHT22;14032;52.510;7.342;2023-04-24T01:12:02;10.50;99.90
26326;DHT22;14032;52.510;7.342;2023-04-24T01:14:27;10.50;99.90
26326;DHT22;14032;52.510;7.342;2023-04-24T01:16:53;10.60;99.90
26326;DHT22;14032;52.510;7.342;2023-04-24T01:19:18;10.60;99.90
26326;DHT22;14032;52.510;7.342;2023-04-24T01:21:44;10.60;99.90
26326;DHT22;14032;52.510;7.342;2023-04-24T01:24:12;10.60;99.90
26326;DHT22;14032;52.510;7.342;2023-04-24T01:26:38;10.60;99.90
26326;DHT22;14032;52.510;7.342;2023-04-24T01:29:03;10.60;99.90
26326;DHT22;14032;52.510;7.342;2023-04-24T01:31:29;10.60;99.90
26326;DHT22;14032;52.510;7.342;2023-04-24T01:33:55;10.60;99.90
26326;DHT22;14032;52.510;7.342;2023-04-24T01:36:21;10.60;99.90
26326;DHT22;14032;52.510;7.342;2023-04-24T01:38:46;10.60;99.90
26326;DHT22;14032;52.510;7.342;2023-04-24T01:41:12;10.60;99.90
26326;DHT22;14032;52.510;7.342;2023-04-24T01:43:37;10.60;99.90
26326;DHT22;14032;52.510;7.342;2023-04-24T01:46:03;10.60;99.90
26326;DHT22;14032;52.510;7.342;2023-04-24T01:48:29;10.60;99.90
26326;DHT22;14032;52.510;7.342;2023-04-24T01:50:56;10.60;99.90
26326;DHT22;14032;52.510;7.342;2023-04-24T01:53:24;10.60;99.90
26326;DHT22;14032;52.510;7.342;2023-04-24T01:55:53;10.60;99.90
26326;DHT22;14032;52.510;7.342;2023-04-24T01:58:18;10.60;99.90
26326;DHT22;14032;52.510;7.342;2023-04-24T02:00:44;10.60;99.90
26326;DHT22;14032;52.510;7.342;2023-04-24T02:03:09;10.60;99.90
26326;DHT22;14032;52.510;7.342;2023-04-24T02:05:35;10.60;99.90
26326;DHT22;14032;52.510;7.342;2023-04-24T02:08:00;10.60;99.90
26326;DHT22;14032;52.510;7.342;2023-04-24T02:10:26;10.50;99.90
26326;DHT22;14032;52.510;7.342;2023-04-24T02:12:51;10.60;99.90
26326;DHT22;14032;52.510;7.342;2023-04-24T02:15:17;10.50;99.90
26326;DHT22;14032;52.510;7.342;2023-04-24T02:17:43;10.50;99.90
26326;DHT22;14032;52.510;7.342;2023-04-24T02:20:08;10.50;99.90
26326;DHT22;14032;52.510;7.342;2023-04-24T02:22:34;10.50;99.90
26326;DHT22;14032;52.510;7.342;2023-04-24T02:24:59;10.50;99.90
26326;DHT22;14032;52.510;7.342;2023-04-24T02:27:25;10.50;99.90
26326;DHT22;14032;52.510;7.342;2023-04-24T02:29:50;10.50;99.90
26326;DHT22;14032;52.510;7.342;2023-04-24T02:32:16;10.50;99.90
26326;DHT22;14032;52.510;7.342;2023-04-24T02:34:41;10.50;99.90
26326;DHT22;14032;52.510;7.342;2023-04-24T02:37:07;10.50;99.90
26326;DHT22;14032;52.510;7.342;2023-04-24T02:39:32;10.50;99.90
26326;DHT22;14032;52.510;7.342;2023-04-24T02:41:58;10.50;99.90
26326;DHT22;14032;52.510;7.342;2023-04-24T02:44:23;10.50;99.90
26326;DHT22;14032;52.510;7.342;2023-04-24T02:46:49;10.50;99.90
26326;DHT22;14032;52.510;7.342;2023-04-24T02:49:14;10.50;99.90
26326;DHT22;14032;52.510;7.342;2023-04-24T02:51:40;10.50;99.90
26326;DHT22;14032;52.510;7.342;2023-04-24T02:54:07;10.40;99.90
26326;DHT22;14032;52.510;7.342;2023-04-24T02:56:33;10.40;99.90
26326;DHT22;14032;52.510;7.342;2023-04-24T02:58:58;10.40;99.90
26326;DHT22;14032;52.510;7.342;2023-04-24T03:01:24;10.40;99.90
26326;DHT22;14032;52.510;7.342;2023-04-24T03:03:50;10.40;99.90
26326;DHT22;14032;52.510;7.342;2023-04-24T03:06:15;10.40;99.90
26326;DHT22;14032;52.510;7.342;2023-04-24T03:08:41;10.40;99.90
26326;DHT22;14032;52.510;7.342;2023-04-24T03:11:06;10.40;99.90
26326;DHT22;14032;52.510;7.342;2023-04-24T03:13:32;10.40;99.90
26326;DHT22;14032;52.510;7.342;2023-04-24T03:15:57;10.30;99.90
26326;DHT22;14032;52.510;7.342;2023-04-24T03:18:22;10.30;99.90
26326;DHT22;14032;52.510;7.342;2023-04-24T03:20:48;10.30;99.90
26326;DHT22;14032;52.510;7.342;2023-04-24T03:23:13;10.30;99.90
26326;DHT22;14032;52.510;7.342;2023-04-24T03:25:39;10.20;99.90
26326;DHT22;14032;52.510;7.342;2023-04-24T03:28:06;10.20;99.90
26326;DHT22;14032;52.510;7.342;2023-04-24T03:30:31;10.20;99.90
26326;DHT22;14032;52.510;7.342;2023-04-24T03:32:56;10.10;99.90
26326;DHT22;14032;52.510;7.342;2023-04-24T03:35:22;10.10;99.90
26326;DHT22;14032;52.510;7.342;2023-04-24T03:37:47;10.10;99.90
26326;DHT22;14032;52.510;7.342;2023-04-24T03:40:13;10.10;99.90
26326;DHT22;14032;52.510;7.342;2023-04-24T03:42:38;10.00;99.90
26326;DHT22;14032;52.510;7.342;2023-04-24T03:45:04;10.00;99.90
26326;DHT22;14032;52.510;7.342;2023-04-24T03:47:30;9.90;99.90
26326;DHT22;14032;52.510;7.342;2023-04-24T03:49:55;10.00;99.90
26326;DHT22;14032;52.510;7.342;2023-04-24T03:52:21;9.90;99.90
26326;DHT22;14032;52.510;7.342;2023-04-24T03:54:46;9.80;99.90
26326;DHT22;14032;52.510;7.342;2023-04-24T03:57:12;9.80;99.90
26326;DHT22;14032;52.510;7.342;2023-04-24T03:59:37;9.80;99.90
26326;DHT22;14032;52.510;7.342;2023-04-24T04:02:02;9.80;99.90
26326;DHT22;14032;52.510;7.342;2023-04-24T04:04:28;9.80;99.90
26326;DHT22;14032;52.510;7.342;2023-04-24T04:06:53;9.80;99.90
26326;DHT22;14032;52.510;7.342;2023-04-24T04:09:19;9.70;99.90
26326;DHT22;14032;52.510;7.342;2023-04-24T04:11:44;9.70;99.90
26326;DHT22;14032;52.510;7.342;2023-04-24T04:14:10;9.70;99.90
26326;DHT22;14032;52.510;7.342;2023-04-24T04:16:36;9.70;99.90
26326;DHT22;14032;52.510;7.342;2023-04-24T04:19:02;9.60;99.90
26326;DHT22;14032;52.510;7.342;2023-04-24T04:21:28;9.70;99.90
26326;DHT22;14032;52.510;7.342;2023-04-24T04:23:53;9.70;99.90
26326;DHT22;14032;52.510;7.342;2023-04-24T04:26:19;9.70;99.90
26326;DHT22;14032;52.510;7.342;2023-04-24T04:28:46;9.70;99.90
26326;DHT22;14032;52.510;7.342;2023-04-24T04:31:12;9.70;99.90
26326;DHT22;14032;52.510;7.342;2023-04-24T04:33:38;9.70;99.90
26326;DHT22;14032;52.510;7.342;2023-04-24T04:36:04;9.70;99.90
26326;DHT22;14032;52.510;7.342;2023-04-24T04:38:30;9.70;99.90
26326;DHT22;14032;52.510;7.342;2023-04-24T04:40:56;9.60;99.90
26326;DHT22;14032;52.510;7.342;2023-04-24T04:43:22;9.60;99.90
26326;DHT22;14032;52.510;7.342;2023-04-24T04:45:48;9.60;99.90
26326;DHT22;14032;52.510;7.342;2023-04-24T04:48:13;9.70;99.90
26326;DHT22;14032;52.510;7.342;2023-04-24T04:50:39;9.70;99.90
26326;DHT22;14032;52.510;7.342;2023-04-24T04:53:04;9.70;99.90
26326;DHT22;14032;52.510;7.342;2023-04-24T04:55:30;9.70;99.90
26326;DHT22;14032;52.510;7.342;2023-04-24T04:57:56;9.70;99.90
26326;DHT22;14032;52.510;7.342;2023-04-24T05:00:22;9.70;99.90
26326;DHT22;14032;52.510;7.342;2023-04-24T05:02:50;9.70;99.90
26326;DHT22;14032;52.510;7.342;2023-04-24T05:05:16;9.80;99.90
26326;DHT22;14032;52.510;7.342;2023-04-24T05:07:43;9.70;99.90
26326;DHT22;14032;52.510;7.342;2023-04-24T05:10:08;9.80;99.90
26326;DHT22;14032;52.510;7.342;2023-04-24T05:12:34;9.70;99.90
26326;DHT22;14032;52.510;7.342;2023-04-24T05:14:59;9.80;99.90
26326;DHT22;14032;52.510;7.342;2023-04-24T05:17:25;9.80;99.90
26326;DHT22;14032;52.510;7.342;2023-04-24T05:19:51;9.80;99.90
26326;DHT22;14032;52.510;7.342;2023-04-24T05:22:16;9.70;99.90
26326;DHT22;14032;52.510;7.342;2023-04-24T05:24:43;9.70;99.90
26326;DHT22;14032;52.510;7.342;2023-04-24T05:27:09;9.80;99.90
26326;DHT22;14032;52.510;7.342;2023-04-24T05:29:35;9.70;99.90
26326;DHT22;14032;52.510;7.342;2023-04-24T05:32:00;9.70;99.90
26326;DHT22;14032;52.510;7.342;2023-04-24T05:34:26;9.70;99.90
26326;DHT22;14032;52.510;7.342;2023-04-24T05:36:51;9.70;99.90
26326;DHT22;14032;52.510;7.342;2023-04-24T05:39:17;9.70;99.90
26326;DHT22;14032;52.510;7.342;2023-04-24T05:41:43;9.70;99.90
26326;DHT22;14032;52.510;7.342;2023-04-24T05:44:08;9.70;99.90
26326;DHT22;14032;52.510;7.342;2023-04-24T05:46:34;9.70;99.90
26326;DHT22;14032;52.510;7.342;2023-04-24T05:48:59;9.70;99.90
26326;DHT22;14032;52.510;7.342;2023-04-24T05:51:25;9.70;99.90
26326;DHT22;14032;52.510;7.342;2023-04-24T05:53:51;9.70;99.90
26326;DHT22;14032;52.510;7.342;2023-04-24T05:56:16;9.80;99.90
26326;DHT22;14032;52.510;7.342;2023-04-24T05:58:42;9.80;99.90
26326;DHT22;14032;52.510;7.342;2023-04-24T06:01:11;9.90;99.90
26326;DHT22;14032;52.510;7.342;2023-04-24T06:03:37;9.90;99.90
26326;DHT22;14032;52.510;7.342;2023-04-24T06:06:03;9.90;99.90
26326;DHT22;14032;52.510;7.342;2023-04-24T06:08:28;9.90;99.90
26326;DHT22;14032;52.510;7.342;2023-04-24T06:10:54;10.00;99.90
26326;DHT22;14032;52.510;7.342;2023-04-24T06:13:19;10.00;99.90
26326;DHT22;14032;52.510;7.342;2023-04-24T06:15:45;10.00;99.90
26326;DHT22;14032;52.510;7.342;2023-04-24T06:18:10;10.00;99.90
26326;DHT22;14032;52.510;7.342;2023-04-24T06:20:36;10.00;99.90
26326;DHT22;14032;52.510;7.342;2023-04-24T06:23:01;10.10;99.90
26326;DHT22;14032;52.510;7.342;2023-04-24T06:25:27;10.10;99.90
26326;DHT22;14032;52.510;7.342;2023-04-24T06:27:53;10.10;99.90
26326;DHT22;14032;52.510;7.342;2023-04-24T06:30:19;10.10;99.90
26326;DHT22;14032;52.510;7.342;2023-04-24T06:32:44;10.20;99.90
26326;DHT22;14032;52.510;7.342;2023-04-24T06:35:10;10.30;99.90
26326;DHT22;14032;52.510;7.342;2023-04-24T06:37:36;10.30;99.90
26326;DHT22;14032;52.510;7.342;2023-04-24T06:40:02;10.40;99.90
26326;DHT22;14032;52.510;7.342;2023-04-24T06:42:27;10.40;99.90
26326;DHT22;14032;52.510;7.342;2023-04-24T06:44:53;10.40;99.90
26326;DHT22;14032;52.510;7.342;2023-04-24T06:47:18;10.40;99.90
26326;DHT22;14032;52.510;7.342;2023-04-24T06:49:44;10.40;99.90
26326;DHT22;14032;52.510;7.342;2023-04-24T06:52:09;10.40;99.90
26326;DHT22;14032;52.510;7.342;2023-04-24T06:54:35;10.40;99.90
26326;DHT22;14032;52.510;7.342;2023-04-24T06:57:00;10.40;99.90
26326;DHT22;14032;52.510;7.342;2023-04-24T06:59:27;10.40;99.90
26326;DHT22;14032;52.510;7.342;2023-04-24T07:01:53;10.30;99.90
26326;DHT22;14032;52.510;7.342;2023-04-24T07:04:19;10.30;99.90
26326;DHT22;14032;52.510;7.342;2023-04-24T07:06:45;10.30;99.90
26326;DHT22;14032;52.510;7.342;2023-04-24T07:09:11;10.30;99.90
26326;DHT22;14032;52.510;7.342;2023-04-24T07:11:36;10.30;99.90
26326;DHT22;14032;52.510;7.342;2023-04-24T07:14:04;10.30;99.90
26326;DHT22;14032;52.510;7.342;2023-04-24T07:16:29;10.40;99.90
26326;DHT22;14032;52.510;7.342;2023-04-24T07:18:55;10.40;99.90
26326;DHT22;14032;52.510;7.342;2023-04-24T07:21:20;10.40;99.90
26326;DHT22;14032;52.510;7.342;2023-04-24T07:23:46;10.40;99.90
26326;DHT22;14032;52.510;7.342;2023-04-24T07:26:12;10.30;99.90
26326;DHT22;14032;52.510;7.342;2023-04-24T07:28:37;10.30;99.90
26326;DHT22;14032;52.510;7.342;2023-04-24T07:31:03;10.30;99.90
26326;DHT22;14032;52.510;7.342;2023-04-24T07:33:28;10.20;99.90
26326;DHT22;14032;52.510;7.342;2023-04-24T07:35:54;10.10;99.90
26326;DHT22;14032;52.510;7.342;2023-04-24T07:38:19;10.10;99.90
26326;DHT22;14032;52.510;7.342;2023-04-24T07:40:48;10.00;99.90
26326;DHT22;14032;52.510;7.342;2023-04-24T07:43:14;9.90;99.90
26326;DHT22;14032;52.510;7.342;2023-04-24T07:45:39;9.90;99.90
26326;DHT22;14032;52.510;7.342;2023-04-24T07:48:05;9.80;99.90
26326;DHT22;14032;52.510;7.342;2023-04-24T07:50:31;9.70;99.90
26326;DHT22;14032;52.510;7.342;2023-04-24T07:52:57;9.70;99.90
26326;DHT22;14032;52.510;7.342;2023-04-24T07:55:22;9.60;99.90
26326;DHT22;14032;52.510;7.342;2023-04-24T07:57:48;9.50;99.90
26326;DHT22;14032;52.510;7.342;2023-04-24T08:00:13;9.50;99.90
26326;DHT22;14032;52.510;7.342;2023-04-24T08:02:39;9.50;99.90
26326;DHT22;14032;52.510;7.342;2023-04-24T08:05:05;9.50;99.90
26326;DHT22;14032;52.510;7.342;2023-04-24T08:07:31;9.40;99.90
26326;DHT22;14032;52.510;7.342;2023-04-24T08:09:56;9.50;99.90
26326;DHT22;14032;52.510;7.342;2023-04-24T08:12:22;9.50;99.90
26326;DHT22;14032;52.510;7.342;2023-04-24T08:14:50;9.50;99.90
26326;DHT22;14032;52.510;7.342;2023-04-24T08:17:21;9.50;99.90
26326;DHT22;14032;52.510;7.342;2023-04-24T08:19:47;9.50;99.90
26326;DHT22;14032;52.510;7.342;2023-04-24T08:22:14;9.50;99.90
26326;DHT22;14032;52.510;7.342;2023-04-24T08:24:40;9.40;99.90
26326;DHT22;14032;52.510;7.342;2023-04-24T08:27:05;9.40;99.90
26326;DHT22;14032;52.510;7.342;2023-04-24T08:29:31;9.40;99.90
26326;DHT22;14032;52.510;7.342;2023-04-24T08:31:57;9.40;99.90
26326;DHT22;14032;52.510;7.342;2023-04-24T08:34:22;9.40;99.90
26326;DHT22;14032;52.510;7.342;2023-04-24T08:36:48;9.50;99.90
26326;DHT22;14032;52.510;7.342;2023-04-24T08:39:14;9.40;99.90
26326;DHT22;14032;52.510;7.342;2023-04-24T08:41:41;9.40;99.90
26326;DHT22;14032;52.510;7.342;2023-04-24T08:44:08;9.50;99.90
26326;DHT22;14032;52.510;7.342;2023-04-24T08:46:34;9.50;99.90
26326;DHT22;14032;52.510;7.342;2023-04-24T08:48:59;9.40;99.90
26326;DHT22;14032;52.510;7.342;2023-04-24T08:51:26;9.40;99.90
26326;DHT22;14032;52.510;7.342;2023-04-24T08:53:52;9.40;99.90
26326;DHT22;14032;52.510;7.342;2023-04-24T08:56:18;9.40;99.90
26326;DHT22;14032;52.510;7.342;2023-04-24T08:58:44;9.40;99.90
26326;DHT22;14032;52.510;7.342;2023-04-24T09:01:10;9.40;99.90
26326;DHT22;14032;52.510;7.342;2023-04-24T09:03:36;9.40;99.90
26326;DHT22;14032;52.510;7.342;2023-04-24T09:06:02;9.40;99.90
26326;DHT22;14032;52.510;7.342;2023-04-24T09:08:28;9.30;99.90
26326;DHT22;14032;52.510;7.342;2023-04-24T09:10:53;9.30;99.90
26326;DHT22;14032;52.510;7.342;2023-04-24T09:13:19;9.30;99.90
26326;DHT22;14032;52.510;7.342;2023-04-24T09:15:45;9.30;99.90
26326;DHT22;14032;52.510;7.342;2023-04-24T09:18:10;9.20;99.90
26326;DHT22;14032;52.510;7.342;2023-04-24T09:20:56;9.20;99.90
26326;DHT22;14032;52.510;7.342;2023-04-24T09:23:21;9.20;99.90
26326;DHT22;14032;52.510;7.342;2023-04-24T09:25:48;9.20;99.90
26326;DHT22;14032;52.510;7.342;2023-04-24T09:28:19;9.20;99.90
26326;DHT22;14032;52.510;7.342;2023-04-24T09:30:44;9.20;99.90
26326;DHT22;14032;52.510;7.342;2023-04-24T09:33:10;9.20;99.90
26326;DHT22;14032;52.510;7.342;2023-04-24T09:35:37;9.20;99.90
26326;DHT22;14032;52.510;7.342;2023-04-24T09:38:05;9.20;99.90
26326;DHT22;14032;52.510;7.342;2023-04-24T09:40:31;9.20;99.90
26326;DHT22;14032;52.510;7.342;2023-04-24T09:42:59;9.20;99.90
26326;DHT22;14032;52.510;7.342;2023-04-24T09:45:28;9.20;99.90
26326;DHT22;14032;52.510;7.342;2023-04-24T09:47:54;9.20;99.90
26326;DHT22;14032;52.510;7.342;2023-04-24T09:50:20;9.20;99.90
26326;DHT22;14032;52.510;7.342;2023-04-24T09:52:47;9.20;99.90
26326;DHT22;14032;52.510;7.342;2023-04-24T09:55:20;9.30;99.90
26326;DHT22;14032;52.510;7.342;2023-04-24T09:57:56;9.30;99.90
26326;DHT22;14032;52.510;7.342;2023-04-24T10:00:32;9.40;99.90
26326;DHT22;14032;52.510;7.342;2023-04-24T10:03:07;9.30;99.90
26326;DHT22;14032;52.510;7.342;2023-04-24T10:05:36;9.30;99.90
26326;DHT22;14032;52.510;7.342;2023-04-24T10:08:04;9.20;99.90
26326;DHT22;14032;52.510;7.342;2023-04-24T10:10:31;9.20;99.90
26326;DHT22;14032;52.510;7.342;2023-04-24T10:12:56;9.20;99.90
26326;DHT22;14032;52.510;7.342;2023-04-24T10:15:22;9.20;99.90
26326;DHT22;14032;52.510;7.342;2023-04-24T10:17:48;9.20;99.90
26326;DHT22;14032;52.510;7.342;2023-04-24T10:20:24;9.20;99.90
26326;DHT22;14032;52.510;7.342;2023-04-24T10:22:50;9.20;99.90
26326;DHT22;14032;52.510;7.342;2023-04-24T10:25:17;9.20;99.90
26326;DHT22;14032;52.510;7.342;2023-04-24T10:27:43;9.20;99.90
26326;DHT22;14032;52.510;7.342;2023-04-24T10:30:10;9.10;99.90
26326;DHT22;14032;52.510;7.342;2023-04-24T10:32:36;9.00;99.90
26326;DHT22;14032;52.510;7.342;2023-04-24T10:35:02;9.10;99.90
26326;DHT22;14032;52.510;7.342;2023-04-24T10:37:27;9.00;99.90
26326;DHT22;14032;52.510;7.342;2023-04-24T10:39:53;9.00;99.90
26326;DHT22;14032;52.510;7.342;2023-04-24T10:42:19;8.90;99.90
26326;DHT22;14032;52.510;7.342;2023-04-24T10:44:47;8.80;99.90
26326;DHT22;14032;52.510;7.342;2023-04-24T10:47:13;8.80;99.90
26326;DHT22;14032;52.510;7.342;2023-04-24T10:49:38;8.80;99.90
26326;DHT22;14032;52.510;7.342;2023-04-24T10:52:04;8.80;99.90
26326;DHT22;14032;52.510;7.342;2023-04-24T10:54:36;8.80;99.90
26326;DHT22;14032;52.510;7.342;2023-04-24T10:59:43;8.80;99.90
26326;DHT22;14032;52.510;7.342;2023-04-24T11:02:09;8.90;99.90
26326;DHT22;14032;52.510;7.342;2023-04-24T11:04:35;8.90;99.90
26326;DHT22;14032;52.510;7.342;2023-04-24T11:07:04;8.90;99.90
26326;DHT22;14032;52.510;7.342;2023-04-24T11:09:33;8.90;99.90
26326;DHT22;14032;52.510;7.342;2023-04-24T11:12:07;9.00;99.90
26326;DHT22;14032;52.510;7.342;2023-04-24T11:14:59;9.00;99.90
26326;DHT22;14032;52.510;7.342;2023-04-24T11:17:33;9.00;99.90
26326;DHT22;14032;52.510;7.342;2023-04-24T11:20:03;9.10;99.90
26326;DHT22;14032;52.510;7.342;2023-04-24T11:22:31;9.10;99.90
26326;DHT22;14032;52.510;7.342;2023-04-24T11:24:58;9.10;99.90
26326;DHT22;14032;52.510;7.342;2023-04-24T11:27:25;9.10;99.90
26326;DHT22;14032;52.510;7.342;2023-04-24T11:32:31;9.20;99.90
26326;DHT22;14032;52.510;7.342;2023-04-24T11:35:06;9.10;99.90
26326;DHT22;14032;52.510;7.342;2023-04-24T11:38:15;9.10;99.90
26326;DHT22;14032;52.510;7.342;2023-04-24T11:40:22;9.00;99.90
26326;DHT22;14032;52.510;7.342;2023-04-24T11:42:53;8.90;99.90
26326;DHT22;14032;52.510;7.342;2023-04-24T11:45:24;8.90;99.90
26326;DHT22;14032;52.510;7.342;2023-04-24T11:47:50;8.80;99.90
26326;DHT22;14032;52.510;7.342;2023-04-24T11:50:16;8.80;99.90
26326;DHT22;14032;52.510;7.342;2023-04-24T11:52:43;8.70;99.90
26326;DHT22;14032;52.510;7.342;2023-04-24T11:57:43;8.70;99.90
26326;DHT22;14032;52.510;7.342;2023-04-24T12:00:15;8.70;99.90
26326;DHT22;14032;52.510;7.342;2023-04-24T12:02:41;8.70;99.90
26326;DHT22;14032;52.510;7.342;2023-04-24T12:05:06;8.70;99.90
26326;DHT22;14032;52.510;7.342;2023-04-24T12:07:36;8.70;99.90
26326;DHT22;14032;52.510;7.342;2023-04-24T12:10:05;8.60;99.90
26326;DHT22;14032;52.510;7.342;2023-04-24T12:12:30;8.70;99.90
26326;DHT22;14032;52.510;7.342;2023-04-24T12:14:56;8.70;99.90
26326;DHT22;14032;52.510;7.342;2023-04-24T12:17:29;8.70;99.90
26326;DHT22;14032;52.510;7.342;2023-04-24T12:19:59;8.70;99.90
26326;DHT22;14032;52.510;7.342;2023-04-24T12:22:25;8.80;99.90
26326;DHT22;14032;52.510;7.342;2023-04-24T12:24:57;8.80;99.90
26326;DHT22;14032;52.510;7.342;2023-04-24T12:27:24;8.90;99.90
26326;DHT22;14032;52.510;7.342;2023-04-24T12:29:56;9.00;99.90
26326;DHT22;14032;52.510;7.342;2023-04-24T12:32:21;9.00;99.90
26326;DHT22;14032;52.510;7.342;2023-04-24T12:34:47;9.10;99.90
26326;DHT22;14032;52.510;7.342;2023-04-24T12:37:17;9.10;99.90
26326;DHT22;14032;52.510;7.342;2023-04-24T12:40:02;9.00;99.90
26326;DHT22;14032;52.510;7.342;2023-04-24T12:42:31;9.00;99.90
26326;DHT22;14032;52.510;7.342;2023-04-24T12:45:00;9.00;99.90
26326;DHT22;14032;52.510;7.342;2023-04-24T12:47:26;9.00;99.90
26326;DHT22;14032;52.510;7.342;2023-04-24T12:49:52;9.00;99.90
26326;DHT22;14032;52.510;7.342;2023-04-24T12:52:18;9.10;99.90
26326;DHT22;14032;52.510;7.342;2023-04-24T12:54:45;9.10;99.90
26326;DHT22;14032;52.510;7.342;2023-04-24T12:57:11;9.10;99.90
26326;DHT22;14032;52.510;7.342;2023-04-24T12:59:36;9.20;99.90
26326;DHT22;14032;52.510;7.342;2023-04-24T13:02:02;9.30;99.90
26326;DHT22;14032;52.510;7.342;2023-04-24T13:04:27;9.30;99.90
26326;DHT22;14032;52.510;7.342;2023-04-24T13:06:53;9.30;99.90
26326;DHT22;14032;52.510;7.342;2023-04-24T13:09:18;9.30;99.90
26326;DHT22;14032;52.510;7.342;2023-04-24T13:11:44;9.30;99.90
26326;DHT22;14032;52.510;7.342;2023-04-24T13:14:09;9.30;99.90
26326;DHT22;14032;52.510;7.342;2023-04-24T13:16:35;9.30;99.90
26326;DHT22;14032;52.510;7.342;2023-04-24T13:19:00;9.30;99.90
26326;DHT22;14032;52.510;7.342;2023-04-24T13:21:25;9.20;99.90
26326;DHT22;14032;52.510;7.342;2023-04-24T13:23:51;9.20;99.90
26326;DHT22;14032;52.510;7.342;2023-04-24T13:26:17;9.10;99.90
26326;DHT22;14032;52.510;7.342;2023-04-24T13:28:42;9.10;99.90
26326;DHT22;14032;52.510;7.342;2023-04-24T13:31:08;9.10;99.90
26326;DHT22;14032;52.510;7.342;2023-04-24T13:33:33;9.10;99.90
26326;DHT22;14032;52.510;7.342;2023-04-24T13:35:59;9.10;99.90
26326;DHT22;14032;52.510;7.342;2023-04-24T13:38:25;9.10;99.90
26326;DHT22;14032;52.510;7.342;2023-04-24T13:40:50;9.10;99.90
26326;DHT22;14032;52.510;7.342;2023-04-24T13:43:16;9.10;99.90
26326;DHT22;14032;52.510;7.342;2023-04-24T13:45:41;9.20;99.90
26326;DHT22;14032;52.510;7.342;2023-04-24T13:48:07;9.20;99.90
26326;DHT22;14032;52.510;7.342;2023-04-24T13:50:34;9.30;99.90
26326;DHT22;14032;52.510;7.342;2023-04-24T13:52:59;9.30;99.90
26326;DHT22;14032;52.510;7.342;2023-04-24T13:55:26;9.30;99.90
26326;DHT22;14032;52.510;7.342;2023-04-24T13:57:52;9.30;99.90
26326;DHT22;14032;52.510;7.342;2023-04-24T14:00:20;9.30;99.90
26326;DHT22;14032;52.510;7.342;2023-04-24T14:02:46;9.30;99.90
26326;DHT22;14032;52.510;7.342;2023-04-24T14:05:12;9.30;99.90
26326;DHT22;14032;52.510;7.342;2023-04-24T14:07:39;9.10;99.90
26326;DHT22;14032;52.510;7.342;2023-04-24T14:10:05;9.20;99.90
26326;DHT22;14032;52.510;7.342;2023-04-24T14:12:30;9.20;99.90
26326;DHT22;14032;52.510;7.342;2023-04-24T14:14:56;9.20;99.90
26326;DHT22;14032;52.510;7.342;2023-04-24T14:17:21;9.20;99.90
26326;DHT22;14032;52.510;7.342;2023-04-24T14:19:47;9.20;99.90
26326;DHT22;14032;52.510;7.342;2023-04-24T14:22:12;9.20;99.90
26326;DHT22;14032;52.510;7.342;2023-04-24T14:24:38;9.20;99.90
26326;DHT22;14032;52.510;7.342;2023-04-24T14:27:03;9.20;99.90
26326;DHT22;14032;52.510;7.342;2023-04-24T14:29:29;9.10;99.90
26326;DHT22;14032;52.510;7.342;2023-04-24T14:31:54;9.00;99.90
26326;DHT22;14032;52.510;7.342;2023-04-24T14:34:20;9.00;99.90
26326;DHT22;14032;52.510;7.342;2023-04-24T14:36:45;9.00;99.90
26326;DHT22;14032;52.510;7.342;2023-04-24T14:39:11;9.00;99.90
26326;DHT22;14032;52.510;7.342;2023-04-24T14:41:37;9.00;99.90
26326;DHT22;14032;52.510;7.342;2023-04-24T14:44:04;8.90;99.90
26326;DHT22;14032;52.510;7.342;2023-04-24T14:46:30;9.00;99.90
26326;DHT22;14032;52.510;7.342;2023-04-24T14:48:56;9.00;99.90
26326;DHT22;14032;52.510;7.342;2023-04-24T14:51:22;9.00;99.90
26326;DHT22;14032;52.510;7.342;2023-04-24T14:53:47;9.10;99.90
26326;DHT22;14032;52.510;7.342;2023-04-24T14:56:13;9.10;99.90
26326;DHT22;14032;52.510;7.342;2023-04-24T14:58:39;9.10;99.90
26326;DHT22;14032;52.510;7.342;2023-04-24T15:01:04;9.20;99.90
26326;DHT22;14032;52.510;7.342;2023-04-24T15:03:30;9.20;99.90
26326;DHT22;14032;52.510;7.342;2023-04-24T15:05:56;9.10;99.90
26326;DHT22;14032;52.510;7.342;2023-04-24T15:08:21;9.10;99.90
26326;DHT22;14032;52.510;7.342;2023-04-24T15:10:47;9.20;99.90
26326;DHT22;14032;52.510;7.342;2023-04-24T15:13:13;9.10;99.90
26326;DHT22;14032;52.510;7.342;2023-04-24T15:15:38;9.10;99.90
26326;DHT22;14032;52.510;7.342;2023-04-24T15:18:04;9.20;99.90
26326;DHT22;14032;52.510;7.342;2023-04-24T15:20:30;9.20;99.90
26326;DHT22;14032;52.510;7.342;2023-04-24T15:22:56;9.30;99.90
26326;DHT22;14032;52.510;7.342;2023-04-24T15:25:21;9.30;99.90
26326;DHT22;14032;52.510;7.342;2023-04-24T15:27:47;9.30;99.90
26326;DHT22;14032;52.510;7.342;2023-04-24T15:30:13;9.50;99.90
26326;DHT22;14032;52.510;7.342;2023-04-24T15:32:38;9.50;99.90
26326;DHT22;14032;52.510;7.342;2023-04-24T15:35:04;9.50;99.90
26326;DHT22;14032;52.510;7.342;2023-04-24T15:37:30;9.50;99.90
26326;DHT22;14032;52.510;7.342;2023-04-24T15:39:55;9.50;99.90
26326;DHT22;14032;52.510;7.342;2023-04-24T15:42:21;9.50;99.90